createdAt,value
2023-04-06T00:01:18.652Z,96.30
2023-04-06T00:03:46.010Z,96.50
2023-04-06T00:06:14.939Z,96.40
2023-04-06T00:08:44.214Z,96.40
2023-04-06T00:11:11.461Z,96.40
2023-04-06T00:13:38.803Z,96.70
2023-04-06T00:16:07.321Z,96.60
2023-04-06T00:18:35.211Z,96.80
2023-04-06T00:21:02.494Z,96.70
2023-04-06T00:23:29.878Z,96.80
2023-04-06T00:25:57.160Z,96.80
2023-04-06T00:28:27.413Z,96.90
2023-04-06T00:30:56.539Z,96.70
2023-04-06T00:33:24.531Z,96.80
2023-04-06T00:35:52.173Z,96.90
2023-04-06T00:38:20.471Z,97.20
2023-04-06T00:40:48.004Z,97.40
2023-04-06T00:43:16.378Z,97.50
2023-04-06T00:45:43.844Z,97.60
2023-04-06T00:48:11.933Z,97.70
2023-04-06T00:50:39.306Z,97.70
2023-04-06T00:53:06.601Z,98.00
2023-04-06T00:55:33.791Z,98.00
2023-04-06T00:58:02.434Z,97.90
2023-04-06T01:00:34.892Z,97.90
2023-04-06T01:03:04.695Z,97.70
2023-04-06T01:05:41.758Z,97.70
2023-04-06T01:08:17.656Z,98.20
2023-04-06T01:10:45.968Z,98.50
2023-04-06T01:13:25.223Z,98.40
2023-04-06T01:15:55.658Z,98.60
2023-04-06T01:18:32.703Z,97.90
2023-04-06T01:21:16.909Z,98.30
2023-04-06T01:24:07.282Z,98.40
2023-04-06T01:26:47.083Z,98.20
2023-04-06T01:29:14.375Z,98.50
2023-04-06T01:31:41.592Z,98.50
2023-04-06T01:34:09.192Z,98.40
2023-04-06T01:36:36.561Z,98.20
2023-04-06T01:39:19.100Z,99.00
2023-04-06T01:41:48.378Z,99.40
2023-04-06T01:44:20.051Z,99.40
2023-04-06T01:46:53.671Z,99.50
2023-04-06T01:49:21.536Z,99.10
2023-04-06T01:51:55.464Z,99.60
2023-04-06T01:54:23.404Z,99.80
2023-04-06T01:57:12.165Z,99.90
2023-04-06T01:59:47.285Z,99.70
2023-04-06T02:02:40.804Z,99.90
2023-04-06T02:05:15.642Z,99.90
2023-04-06T02:07:43.438Z,99.90
2023-04-06T02:10:15.739Z,99.90
2023-04-06T02:12:45.092Z,99.90
2023-04-06T02:15:18.462Z,99.90
2023-04-06T02:17:46.186Z,99.90
2023-04-06T02:20:14.000Z,99.90
2023-04-06T02:22:41.815Z,99.90
2023-04-06T02:25:09.977Z,99.90
2023-04-06T02:27:37.771Z,99.90
2023-04-06T02:30:06.270Z,99.90
2023-04-06T02:32:33.678Z,99.90
2023-04-06T02:35:02.341Z,99.90
2023-04-06T02:37:31.170Z,99.90
2023-04-06T02:40:00.075Z,99.90
2023-04-06T02:42:29.329Z,99.90
2023-04-06T02:44:57.171Z,99.90
2023-04-06T02:47:28.428Z,99.90
2023-04-06T02:49:55.697Z,99.90
2023-04-06T02:52:23.117Z,99.90
2023-04-06T02:54:52.363Z,99.90
2023-04-06T02:57:26.370Z,99.90
2023-04-06T02:59:53.863Z,99.90
2023-04-06T03:02:27.472Z,99.90
2023-04-06T03:05:04.877Z,99.90
2023-04-06T03:07:37.023Z,99.90
2023-04-06T03:10:05.350Z,99.90
2023-04-06T03:12:34.035Z,99.90
2023-04-06T03:15:19.861Z,99.90
2023-04-06T03:17:52.296Z,99.90
2023-04-06T03:20:37.754Z,99.90
2023-04-06T03:23:06.190Z,99.90
2023-04-06T03:25:41.014Z,99.90
2023-04-06T03:28:11.036Z,99.90
2023-04-06T03:30:47.735Z,99.90
2023-04-06T03:33:19.146Z,99.90
2023-04-06T03:35:54.313Z,99.90
2023-04-06T03:38:24.112Z,99.90
2023-04-06T03:40:51.412Z,99.90
2023-04-06T03:43:23.415Z,99.90
2023-04-06T03:45:51.277Z,99.90
2023-04-06T03:48:18.647Z,99.90
2023-04-06T03:50:46.077Z,99.90
2023-04-06T03:53:13.391Z,99.90
2023-04-06T03:55:40.955Z,99.90
2023-04-06T03:58:08.250Z,99.90
2023-04-06T04:00:35.506Z,99.90
2023-04-06T04:03:03.732Z,99.90
2023-04-06T04:05:31.462Z,99.90
2023-04-06T04:07:58.664Z,99.90
2023-04-06T04:10:28.038Z,99.90
2023-04-06T04:12:55.440Z,99.90
2023-04-06T04:15:22.712Z,99.90
2023-04-06T04:17:50.709Z,99.90
2023-04-06T04:20:18.469Z,99.90
2023-04-06T04:22:46.285Z,99.90
2023-04-06T04:25:14.357Z,99.90
2023-04-06T04:27:46.791Z,99.90
2023-04-06T04:30:15.033Z,99.90
2023-04-06T04:32:43.008Z,99.90
2023-04-06T04:35:11.294Z,99.90
2023-04-06T04:37:42.721Z,99.90
2023-04-06T04:40:12.219Z,99.90
2023-04-06T04:42:52.121Z,99.90
2023-04-06T04:45:29.461Z,99.90
2023-04-06T04:47:58.912Z,99.90
2023-04-06T04:50:32.199Z,99.90
2023-04-06T04:53:00.274Z,99.90
2023-04-06T04:55:28.691Z,99.90
2023-04-06T04:57:58.879Z,99.90
2023-04-06T05:00:40.115Z,99.90
2023-04-06T05:03:08.126Z,99.90
2023-04-06T05:05:38.202Z,99.90
2023-04-06T05:08:07.367Z,99.90
2023-04-06T05:10:43.204Z,99.90
2023-04-06T05:13:10.993Z,99.90
2023-04-06T05:15:41.663Z,99.90
2023-04-06T05:18:20.675Z,99.90
2023-04-06T05:20:48.613Z,99.90
2023-04-06T05:23:16.100Z,99.90
2023-04-06T05:25:44.664Z,99.90
2023-04-06T05:28:20.065Z,99.90
2023-04-06T05:30:47.350Z,99.90
2023-04-06T05:33:16.406Z,99.90
2023-04-06T05:36:04.935Z,99.90
2023-04-06T05:38:34.491Z,99.90
2023-04-06T05:41:09.828Z,99.90
2023-04-06T05:43:38.342Z,99.90
2023-04-06T05:46:06.342Z,99.90
2023-04-06T05:48:33.702Z,99.90
2023-04-06T05:51:03.221Z,99.90
2023-04-06T05:53:39.706Z,99.90
2023-04-06T05:56:07.864Z,99.90
2023-04-06T05:58:36.555Z,99.90
2023-04-06T06:01:04.894Z,99.90
2023-04-06T06:03:41.017Z,99.90
2023-04-06T06:06:08.386Z,99.90
2023-04-06T06:09:02.330Z,99.90
2023-04-06T06:11:34.304Z,99.90
2023-04-06T06:14:03.643Z,99.60
2023-04-06T06:16:35.444Z,98.80
2023-04-06T06:19:03.565Z,99.10
2023-04-06T06:21:32.728Z,98.80
2023-04-06T11:52:18.939Z,98.60
2023-04-06T11:54:48.742Z,63.10
2023-04-06T11:57:17.841Z,62.90
2023-04-06T11:59:45.417Z,59.10
2023-04-06T12:02:12.926Z,58.60
2023-04-06T12:04:40.876Z,59.20
2023-04-06T12:07:08.120Z,60.50
2023-04-06T12:09:37.192Z,61.90
2023-04-06T12:12:05.295Z,65.40
2023-04-06T12:14:32.710Z,61.60
2023-04-06T12:17:00.066Z,62.30
2023-04-06T12:19:27.516Z,61.80
2023-04-06T12:21:55.796Z,66.00
2023-04-06T12:24:23.373Z,63.90
2023-04-06T12:26:54.101Z,59.80
2023-04-06T12:29:27.229Z,65.30
2023-04-06T12:31:54.599Z,61.50
2023-04-06T12:34:22.300Z,59.60
2023-04-06T12:36:49.463Z,60.40
2023-04-06T12:39:19.850Z,60.00
2023-04-06T12:41:47.840Z,59.40
2023-04-06T12:44:15.039Z,58.40
2023-04-06T12:46:42.453Z,56.80
2023-04-06T12:49:09.876Z,56.40
2023-04-06T12:51:37.264Z,54.60
2023-04-06T12:54:04.633Z,54.70
2023-04-06T12:56:32.560Z,54.60
2023-04-06T12:58:59.921Z,54.70
2023-04-06T13:01:29.300Z,53.50
2023-04-06T13:03:58.981Z,54.10
2023-04-06T13:06:28.898Z,52.20
2023-04-06T13:08:56.672Z,52.10
2023-04-06T13:11:27.002Z,52.30
2023-04-06T13:13:55.852Z,55.30
2023-04-06T13:16:23.339Z,53.40
2023-04-06T13:18:51.450Z,50.20
2023-04-06T13:21:20.218Z,49.80
2023-04-06T13:23:47.595Z,53.70
2023-04-06T13:26:16.226Z,50.70
2023-04-06T13:28:44.202Z,48.40
2023-04-06T13:31:11.578Z,50.70
2023-04-06T13:33:41.987Z,50.70
2023-04-06T13:36:09.840Z,50.50
2023-04-06T13:38:40.009Z,47.80
2023-04-06T13:41:07.562Z,50.50
2023-04-06T13:43:34.805Z,48.70
2023-04-06T13:46:02.539Z,47.70
2023-04-06T13:48:30.058Z,49.60
2023-04-06T13:50:57.250Z,46.90
2023-04-06T13:53:24.576Z,46.00
2023-04-06T13:55:56.750Z,47.10
2023-04-06T13:58:24.576Z,47.10
2023-04-06T14:00:52.180Z,49.00
2023-04-06T14:03:20.447Z,47.60
2023-04-06T14:05:48.201Z,48.00
2023-04-06T14:08:15.697Z,44.90
2023-04-06T14:10:43.570Z,47.10
2023-04-06T14:13:11.632Z,47.60
2023-04-06T14:15:39.380Z,47.00
2023-04-06T14:18:07.372Z,46.30
2023-04-06T14:20:35.203Z,44.60
2023-04-06T14:23:03.367Z,46.00
2023-04-06T14:25:33.161Z,44.60
2023-04-06T14:28:00.915Z,46.80
2023-04-06T14:30:30.018Z,45.80
2023-04-06T14:33:01.049Z,46.60
2023-04-06T14:35:29.428Z,44.60
2023-04-06T14:38:00.469Z,45.50
2023-04-06T14:40:27.794Z,45.80
2023-04-06T14:42:56.895Z,45.10
2023-04-06T14:45:24.395Z,45.20
2023-04-06T14:47:51.785Z,46.20
2023-04-06T14:50:18.956Z,45.80
2023-04-06T14:52:47.930Z,45.10
2023-04-06T14:55:15.254Z,44.40
2023-04-06T14:57:42.454Z,45.20
2023-04-06T15:00:10.746Z,49.30
2023-04-06T15:02:38.465Z,51.90
2023-04-06T15:05:06.694Z,53.60
2023-04-06T15:07:33.956Z,52.50
2023-04-06T15:10:01.195Z,52.90
2023-04-06T15:12:30.562Z,53.50
2023-04-06T15:14:57.893Z,53.50
2023-04-06T15:17:27.675Z,54.00
2023-04-06T15:19:55.772Z,53.70
2023-04-06T15:22:22.916Z,54.00
2023-04-06T15:24:50.334Z,53.60
2023-04-06T15:27:17.660Z,54.20
2023-04-06T15:29:44.937Z,54.70
2023-04-06T15:32:12.818Z,55.30
2023-04-06T15:34:40.559Z,55.30
2023-04-06T15:37:08.400Z,54.90
2023-04-06T15:39:37.381Z,55.00
2023-04-06T15:42:05.132Z,55.60
2023-04-06T15:44:32.467Z,55.00
2023-04-06T15:47:00.355Z,55.40
2023-04-06T15:49:27.707Z,56.90
2023-04-06T15:51:54.895Z,56.00
2023-04-06T15:54:22.202Z,55.20
2023-04-06T15:56:50.794Z,55.70
2023-04-06T15:59:18.291Z,55.90
2023-04-06T16:01:47.412Z,56.60
2023-04-06T16:04:15.332Z,57.00
2023-04-06T16:06:42.774Z,56.60
2023-04-06T16:09:10.079Z,57.60
2023-04-06T16:11:37.348Z,57.00
2023-04-06T16:14:05.347Z,58.40
2023-04-06T16:16:32.616Z,58.10
2023-04-06T16:18:59.986Z,57.30
2023-04-06T16:21:28.233Z,59.20
2023-04-06T16:23:56.126Z,57.50
2023-04-06T16:26:24.811Z,57.80
2023-04-06T16:28:52.376Z,58.70
2023-04-06T16:31:24.538Z,57.80
2023-04-06T16:33:57.291Z,57.80
2023-04-06T16:36:30.031Z,58.20
2023-04-06T16:38:58.612Z,59.40
2023-04-06T16:41:27.877Z,58.40
2023-04-06T16:43:57.550Z,58.50
2023-04-06T16:46:33.102Z,58.60
2023-04-06T16:49:01.515Z,58.60
2023-04-06T16:51:29.696Z,58.30
2023-04-06T16:53:57.044Z,58.10
2023-04-06T16:56:24.417Z,58.30
2023-04-06T16:58:52.315Z,58.40
2023-04-06T17:01:21.668Z,58.70
2023-04-06T17:03:49.387Z,58.80
2023-04-06T17:06:17.525Z,58.80
2023-04-06T17:08:45.998Z,58.10
2023-04-06T17:11:16.089Z,58.50
